sensor_id;sensor_type;location;lat;lon;timestamp;temperature;humidity
39021;DHT22;25188;51.958;5.842;2022-11-15T00:00:17;8.60;96.90
39021;DHT22;25188;51.958;5.842;2022-11-15T00:02:43;8.60;97.10
39021;DHT22;25188;51.958;5.842;2022-11-15T00:05:09;8.60;97.10
39021;DHT22;25188;51.958;5.842;2022-11-15T00:07:34;8.70;97.30
39021;DHT22;25188;51.958;5.842;2022-11-15T00:10:00;8.70;97.30
39021;DHT22;25188;51.958;5.842;2022-11-15T00:12:27;8.70;97.30
39021;DHT22;25188;51.958;5.842;2022-11-15T00:14:53;8.70;97.30
39021;DHT22;25188;51.958;5.842;2022-11-15T00:17:19;8.70;97.50
39021;DHT22;25188;51.958;5.842;2022-11-15T00:19:44;8.70;97.60
39021;DHT22;25188;51.958;5.842;2022-11-15T00:22:10;8.70;97.60
39021;DHT22;25188;51.958;5.842;2022-11-15T00:24:36;8.70;97.70
39021;DHT22;25188;51.958;5.842;2022-11-15T00:27:01;8.70;97.90
39021;DHT22;25188;51.958;5.842;2022-11-15T00:29:27;8.80;98.00
39021;DHT22;25188;51.958;5.842;2022-11-15T00:31:52;8.80;97.90
39021;DHT22;25188;51.958;5.842;2022-11-15T00:34:18;8.70;98.00
39021;DHT22;25188;51.958;5.842;2022-11-15T00:36:44;8.80;98.00
39021;DHT22;25188;51.958;5.842;2022-11-15T00:39:09;8.80;98.10
39021;DHT22;25188;51.958;5.842;2022-11-15T00:41:35;8.90;98.20
39021;DHT22;25188;51.958;5.842;2022-11-15T00:44:00;8.90;98.20
39021;DHT22;25188;51.958;5.842;2022-11-15T00:46:26;9.00;98.30
39021;DHT22;25188;51.958;5.842;2022-11-15T00:48:52;8.90;98.30
39021;DHT22;25188;51.958;5.842;2022-11-15T00:51:17;8.90;98.30
39021;DHT22;25188;51.958;5.842;2022-11-15T00:53:43;8.90;98.40
39021;DHT22;25188;51.958;5.842;2022-11-15T00:56:09;9.00;98.50
39021;DHT22;25188;51.958;5.842;2022-11-15T00:58:34;9.00;98.50
39021;DHT22;25188;51.958;5.842;2022-11-15T01:01:11;9.00;98.50
39021;DHT22;25188;51.958;5.842;2022-11-15T01:03:38;9.00;98.60
39021;DHT22;25188;51.958;5.842;2022-11-15T01:06:04;9.00;99.00
39021;DHT22;25188;51.958;5.842;2022-11-15T01:08:30;9.00;98.70
39021;DHT22;25188;51.958;5.842;2022-11-15T01:11:01;9.00;98.80
39021;DHT22;25188;51.958;5.842;2022-11-15T01:13:30;9.00;98.90
39021;DHT22;25188;51.958;5.842;2022-11-15T01:15:56;9.00;98.80
39021;DHT22;25188;51.958;5.842;2022-11-15T01:18:22;9.10;98.90
39021;DHT22;25188;51.958;5.842;2022-11-15T01:20:47;9.00;98.90
39021;DHT22;25188;51.958;5.842;2022-11-15T01:23:13;9.00;99.00
39021;DHT22;25188;51.958;5.842;2022-11-15T01:25:39;9.00;99.00
39021;DHT22;25188;51.958;5.842;2022-11-15T01:28:05;9.10;99.10
39021;DHT22;25188;51.958;5.842;2022-11-15T01:30:30;9.10;99.20
39021;DHT22;25188;51.958;5.842;2022-11-15T01:32:56;9.20;99.30
39021;DHT22;25188;51.958;5.842;2022-11-15T01:35:22;9.20;99.40
39021;DHT22;25188;51.958;5.842;2022-11-15T01:37:47;9.30;99.50
39021;DHT22;25188;51.958;5.842;2022-11-15T01:40:14;9.20;99.50
39021;DHT22;25188;51.958;5.842;2022-11-15T01:42:39;9.20;99.50
39021;DHT22;25188;51.958;5.842;2022-11-15T01:45:06;9.20;99.60
39021;DHT22;25188;51.958;5.842;2022-11-15T01:47:35;9.30;99.60
39021;DHT22;25188;51.958;5.842;2022-11-15T01:50:06;9.30;99.70
39021;DHT22;25188;51.958;5.842;2022-11-15T01:52:34;9.30;99.70
39021;DHT22;25188;51.958;5.842;2022-11-15T01:57:35;9.40;99.90
39021;DHT22;25188;51.958;5.842;2022-11-15T02:00:03;9.40;99.90
39021;DHT22;25188;51.958;5.842;2022-11-15T02:02:28;9.40;99.90
39021;DHT22;25188;51.958;5.842;2022-11-15T02:04:54;9.40;99.90
39021;DHT22;25188;51.958;5.842;2022-11-15T02:07:21;9.50;99.90
39021;DHT22;25188;51.958;5.842;2022-11-15T02:09:48;9.50;99.90
39021;DHT22;25188;51.958;5.842;2022-11-15T02:12:17;9.50;99.90
39021;DHT22;25188;51.958;5.842;2022-11-15T02:14:50;9.50;99.90
39021;DHT22;25188;51.958;5.842;2022-11-15T02:17:24;9.60;99.90
39021;DHT22;25188;51.958;5.842;2022-11-15T02:23:13;9.70;99.90
39021;DHT22;25188;51.958;5.842;2022-11-15T02:31:03;9.70;99.90
39021;DHT22;25188;51.958;5.842;2022-11-15T02:36:33;9.80;99.90
39021;DHT22;25188;51.958;5.842;2022-11-15T02:42:02;9.90;99.90
39021;DHT22;25188;51.958;5.842;2022-11-15T02:44:43;10.00;99.90
39021;DHT22;25188;51.958;5.842;2022-11-15T02:47:13;9.90;99.90
39021;DHT22;25188;51.958;5.842;2022-11-15T02:50:03;10.00;99.90
39021;DHT22;25188;51.958;5.842;2022-11-15T02:52:30;10.00;99.90
39021;DHT22;25188;51.958;5.842;2022-11-15T02:54:58;10.20;99.90
39021;DHT22;25188;51.958;5.842;2022-11-15T02:58:05;10.10;99.90
39021;DHT22;25188;51.958;5.842;2022-11-15T03:06:57;10.20;99.90
39021;DHT22;25188;51.958;5.842;2022-11-15T03:09:35;10.30;99.90
39021;DHT22;25188;51.958;5.842;2022-11-15T03:12:07;10.30;99.90
39021;DHT22;25188;51.958;5.842;2022-11-15T03:15:00;10.20;99.90
39021;DHT22;25188;51.958;5.842;2022-11-15T03:17:35;10.30;99.90
39021;DHT22;25188;51.958;5.842;2022-11-15T03:20:04;10.30;99.90
39021;DHT22;25188;51.958;5.842;2022-11-15T03:22:35;10.40;99.90
39021;DHT22;25188;51.958;5.842;2022-11-15T03:25:05;10.50;99.90
39021;DHT22;25188;51.958;5.842;2022-11-15T03:27:37;10.40;99.90
39021;DHT22;25188;51.958;5.842;2022-11-15T03:30:06;10.50;99.90
39021;DHT22;25188;51.958;5.842;2022-11-15T03:32:39;10.50;99.90
39021;DHT22;25188;51.958;5.842;2022-11-15T03:35:27;10.50;99.90
39021;DHT22;25188;51.958;5.842;2022-11-15T03:38:05;10.50;99.90
39021;DHT22;25188;51.958;5.842;2022-11-15T03:40:40;10.50;99.90
39021;DHT22;25188;51.958;5.842;2022-11-15T03:43:21;10.60;99.90
39021;DHT22;25188;51.958;5.842;2022-11-15T03:46:28;10.60;99.90
39021;DHT22;25188;51.958;5.842;2022-11-15T03:49:10;10.60;99.90
39021;DHT22;25188;51.958;5.842;2022-11-15T03:51:37;10.60;99.90
39021;DHT22;25188;51.958;5.842;2022-11-15T03:54:04;10.70;99.90
39021;DHT22;25188;51.958;5.842;2022-11-15T03:56:29;10.70;99.90
39021;DHT22;25188;51.958;5.842;2022-11-15T03:58:55;10.70;99.90
39021;DHT22;25188;51.958;5.842;2022-11-15T04:01:20;10.80;99.90
39021;DHT22;25188;51.958;5.842;2022-11-15T04:03:46;10.80;99.90
39021;DHT22;25188;51.958;5.842;2022-11-15T04:06:12;10.80;99.90
39021;DHT22;25188;51.958;5.842;2022-11-15T04:08:37;10.80;99.90
39021;DHT22;25188;51.958;5.842;2022-11-15T04:11:03;10.80;99.90
39021;DHT22;25188;51.958;5.842;2022-11-15T04:13:29;10.90;99.90
39021;DHT22;25188;51.958;5.842;2022-11-15T04:15:54;10.90;99.90
39021;DHT22;25188;51.958;5.842;2022-11-15T04:18:20;10.90;99.90
39021;DHT22;25188;51.958;5.842;2022-11-15T04:20:46;10.90;99.90
39021;DHT22;25188;51.958;5.842;2022-11-15T04:23:30;10.90;99.90
39021;DHT22;25188;51.958;5.842;2022-11-15T04:26:21;10.90;99.90
39021;DHT22;25188;51.958;5.842;2022-11-15T04:28:48;11.00;99.90
39021;DHT22;25188;51.958;5.842;2022-11-15T04:31:32;11.00;99.90
39021;DHT22;25188;51.958;5.842;2022-11-15T04:33:58;11.00;99.90
39021;DHT22;25188;51.958;5.842;2022-11-15T04:36:24;11.00;99.90
39021;DHT22;25188;51.958;5.842;2022-11-15T04:39:08;11.10;99.90
39021;DHT22;25188;51.958;5.842;2022-11-15T04:41:34;11.10;99.90
39021;DHT22;25188;51.958;5.842;2022-11-15T04:44:00;11.20;99.90
39021;DHT22;25188;51.958;5.842;2022-11-15T04:46:26;11.10;99.90
39021;DHT22;25188;51.958;5.842;2022-11-15T04:48:52;11.10;99.90
39021;DHT22;25188;51.958;5.842;2022-11-15T04:51:18;11.10;99.90
39021;DHT22;25188;51.958;5.842;2022-11-15T04:53:44;11.20;99.90
39021;DHT22;25188;51.958;5.842;2022-11-15T04:56:09;11.20;99.90
39021;DHT22;25188;51.958;5.842;2022-11-15T04:58:35;11.20;99.90
39021;DHT22;25188;51.958;5.842;2022-11-15T05:01:11;11.20;99.90
39021;DHT22;25188;51.958;5.842;2022-11-15T05:03:37;11.20;99.90
39021;DHT22;25188;51.958;5.842;2022-11-15T05:06:22;11.20;99.90
39021;DHT22;25188;51.958;5.842;2022-11-15T05:08:47;11.30;99.90
39021;DHT22;25188;51.958;5.842;2022-11-15T05:11:13;11.30;99.90
39021;DHT22;25188;51.958;5.842;2022-11-15T05:13:38;11.30;99.90
39021;DHT22;25188;51.958;5.842;2022-11-15T05:16:04;11.30;99.90
39021;DHT22;25188;51.958;5.842;2022-11-15T05:18:30;11.30;99.90
39021;DHT22;25188;51.958;5.842;2022-11-15T05:20:55;11.40;99.90
39021;DHT22;25188;51.958;5.842;2022-11-15T05:23:21;11.40;99.90
39021;DHT22;25188;51.958;5.842;2022-11-15T05:25:47;11.40;99.90
39021;DHT22;25188;51.958;5.842;2022-11-15T05:28:12;11.40;99.90
39021;DHT22;25188;51.958;5.842;2022-11-15T05:30:38;11.40;99.90
39021;DHT22;25188;51.958;5.842;2022-11-15T05:33:04;11.40;99.90
39021;DHT22;25188;51.958;5.842;2022-11-15T05:35:34;11.40;99.90
39021;DHT22;25188;51.958;5.842;2022-11-15T05:38:01;11.50;99.90
39021;DHT22;25188;51.958;5.842;2022-11-15T05:40:27;11.40;99.90
39021;DHT22;25188;51.958;5.842;2022-11-15T05:42:54;11.50;99.90
39021;DHT22;25188;51.958;5.842;2022-11-15T05:45:20;11.50;99.90
39021;DHT22;25188;51.958;5.842;2022-11-15T05:47:46;11.50;99.90
39021;DHT22;25188;51.958;5.842;2022-11-15T05:50:14;11.50;99.90
39021;DHT22;25188;51.958;5.842;2022-11-15T05:52:40;11.50;99.90
39021;DHT22;25188;51.958;5.842;2022-11-15T05:55:07;11.60;99.90
39021;DHT22;25188;51.958;5.842;2022-11-15T05:57:34;11.60;99.90
39021;DHT22;25188;51.958;5.842;2022-11-15T05:59:59;11.60;99.90
39021;DHT22;25188;51.958;5.842;2022-11-15T06:02:25;11.60;99.90
39021;DHT22;25188;51.958;5.842;2022-11-15T06:04:51;11.50;99.90
39021;DHT22;25188;51.958;5.842;2022-11-15T06:07:16;11.60;99.90
39021;DHT22;25188;51.958;5.842;2022-11-15T06:09:42;11.60;99.90
39021;DHT22;25188;51.958;5.842;2022-11-15T06:12:07;11.60;99.90
39021;DHT22;25188;51.958;5.842;2022-11-15T06:14:33;11.60;99.90
39021;DHT22;25188;51.958;5.842;2022-11-15T06:16:59;11.60;99.90
39021;DHT22;25188;51.958;5.842;2022-11-15T06:19:30;11.50;99.90
39021;DHT22;25188;51.958;5.842;2022-11-15T06:22:01;11.60;99.90
39021;DHT22;25188;51.958;5.842;2022-11-15T06:24:27;11.60;99.90
39021;DHT22;25188;51.958;5.842;2022-11-15T06:26:53;11.60;99.90
39021;DHT22;25188;51.958;5.842;2022-11-15T06:29:18;11.60;99.90
39021;DHT22;25188;51.958;5.842;2022-11-15T06:31:44;11.70;99.90
39021;DHT22;25188;51.958;5.842;2022-11-15T06:34:10;11.70;99.90
39021;DHT22;25188;51.958;5.842;2022-11-15T06:36:36;11.70;99.90
39021;DHT22;25188;51.958;5.842;2022-11-15T06:39:03;11.60;99.90
39021;DHT22;25188;51.958;5.842;2022-11-15T06:41:29;11.70;99.90
39021;DHT22;25188;51.958;5.842;2022-11-15T06:43:56;11.70;99.90
39021;DHT22;25188;51.958;5.842;2022-11-15T06:46:21;11.70;99.90
39021;DHT22;25188;51.958;5.842;2022-11-15T06:48:47;11.80;99.90
39021;DHT22;25188;51.958;5.842;2022-11-15T06:51:14;11.70;99.90
39021;DHT22;25188;51.958;5.842;2022-11-15T06:53:40;11.80;99.90
39021;DHT22;25188;51.958;5.842;2022-11-15T06:56:06;11.80;99.90
39021;DHT22;25188;51.958;5.842;2022-11-15T06:58:32;11.80;99.90
39021;DHT22;25188;51.958;5.842;2022-11-15T07:01:00;11.80;99.90
39021;DHT22;25188;51.958;5.842;2022-11-15T07:03:26;11.80;99.90
39021;DHT22;25188;51.958;5.842;2022-11-15T07:05:56;11.80;99.90
39021;DHT22;25188;51.958;5.842;2022-11-15T07:08:23;11.80;99.90
39021;DHT22;25188;51.958;5.842;2022-11-15T07:10:49;11.90;99.90
39021;DHT22;25188;51.958;5.842;2022-11-15T07:13:15;11.90;99.90
39021;DHT22;25188;51.958;5.842;2022-11-15T07:15:41;12.00;99.90
39021;DHT22;25188;51.958;5.842;2022-11-15T07:18:07;11.90;99.90
39021;DHT22;25188;51.958;5.842;2022-11-15T07:20:32;11.90;99.90
39021;DHT22;25188;51.958;5.842;2022-11-15T07:23:02;11.90;99.90
39021;DHT22;25188;51.958;5.842;2022-11-15T07:25:28;11.90;99.90
39021;DHT22;25188;51.958;5.842;2022-11-15T07:27:55;11.80;99.90
39021;DHT22;25188;51.958;5.842;2022-11-15T07:30:21;11.90;99.90
39021;DHT22;25188;51.958;5.842;2022-11-15T07:32:47;11.90;99.90
39021;DHT22;25188;51.958;5.842;2022-11-15T07:35:12;11.80;99.90
39021;DHT22;25188;51.958;5.842;2022-11-15T07:37:38;11.80;99.90
39021;DHT22;25188;51.958;5.842;2022-11-15T07:40:04;11.80;99.90
39021;DHT22;25188;51.958;5.842;2022-11-15T07:42:33;11.80;99.90
39021;DHT22;25188;51.958;5.842;2022-11-15T07:45:16;11.80;99.90
39021;DHT22;25188;51.958;5.842;2022-11-15T07:47:46;11.80;99.90
39021;DHT22;25188;51.958;5.842;2022-11-15T07:50:11;11.80;99.90
39021;DHT22;25188;51.958;5.842;2022-11-15T07:52:37;11.80;99.90
39021;DHT22;25188;51.958;5.842;2022-11-15T07:55:03;11.80;99.90
39021;DHT22;25188;51.958;5.842;2022-11-15T07:57:29;11.80;99.90
39021;DHT22;25188;51.958;5.842;2022-11-15T07:59:55;11.80;99.90
39021;DHT22;25188;51.958;5.842;2022-11-15T08:02:21;11.90;99.90
39021;DHT22;25188;51.958;5.842;2022-11-15T08:04:46;11.90;99.90
39021;DHT22;25188;51.958;5.842;2022-11-15T08:07:12;11.90;99.90
39021;DHT22;25188;51.958;5.842;2022-11-15T08:09:37;11.90;99.90
39021;DHT22;25188;51.958;5.842;2022-11-15T08:12:03;11.90;99.90
39021;DHT22;25188;51.958;5.842;2022-11-15T08:14:29;11.90;99.90
39021;DHT22;25188;51.958;5.842;2022-11-15T08:16:55;11.90;99.90
39021;DHT22;25188;51.958;5.842;2022-11-15T08:19:20;12.00;99.90
39021;DHT22;25188;51.958;5.842;2022-11-15T08:21:46;12.00;99.90
39021;DHT22;25188;51.958;5.842;2022-11-15T08:24:12;12.00;99.90
39021;DHT22;25188;51.958;5.842;2022-11-15T08:26:38;12.00;99.90
39021;DHT22;25188;51.958;5.842;2022-11-15T08:29:03;12.10;99.90
39021;DHT22;25188;51.958;5.842;2022-11-15T08:31:29;12.10;99.90
39021;DHT22;25188;51.958;5.842;2022-11-15T08:33:54;12.10;99.90
39021;DHT22;25188;51.958;5.842;2022-11-15T08:36:20;12.20;99.90
39021;DHT22;25188;51.958;5.842;2022-11-15T08:38:46;12.20;99.90
39021;DHT22;25188;51.958;5.842;2022-11-15T08:41:16;12.20;99.90
39021;DHT22;25188;51.958;5.842;2022-11-15T08:43:44;12.20;99.90
39021;DHT22;25188;51.958;5.842;2022-11-15T08:46:13;12.30;99.90
39021;DHT22;25188;51.958;5.842;2022-11-15T08:48:39;12.40;99.90
39021;DHT22;25188;51.958;5.842;2022-11-15T08:51:05;12.30;99.90
39021;DHT22;25188;51.958;5.842;2022-11-15T08:53:31;12.40;99.90
39021;DHT22;25188;51.958;5.842;2022-11-15T08:55:56;12.50;99.90
39021;DHT22;25188;51.958;5.842;2022-11-15T08:58:22;12.50;99.90
39021;DHT22;25188;51.958;5.842;2022-11-15T09:00:48;12.60;99.90
39021;DHT22;25188;51.958;5.842;2022-11-15T09:03:13;12.60;99.90
39021;DHT22;25188;51.958;5.842;2022-11-15T09:05:39;12.70;99.90
39021;DHT22;25188;51.958;5.842;2022-11-15T09:08:05;12.70;99.90
39021;DHT22;25188;51.958;5.842;2022-11-15T09:10:31;12.70;99.90
39021;DHT22;25188;51.958;5.842;2022-11-15T09:12:57;12.70;99.90
39021;DHT22;25188;51.958;5.842;2022-11-15T09:15:23;12.70;99.90
39021;DHT22;25188;51.958;5.842;2022-11-15T09:17:48;12.70;99.90
39021;DHT22;25188;51.958;5.842;2022-11-15T09:20:14;12.60;99.90
39021;DHT22;25188;51.958;5.842;2022-11-15T09:22:40;12.70;99.90
39021;DHT22;25188;51.958;5.842;2022-11-15T09:25:06;12.70;99.90
39021;DHT22;25188;51.958;5.842;2022-11-15T09:27:32;12.70;99.90
39021;DHT22;25188;51.958;5.842;2022-11-15T09:29:57;12.70;99.90
39021;DHT22;25188;51.958;5.842;2022-11-15T09:32:23;12.70;99.90
39021;DHT22;25188;51.958;5.842;2022-11-15T09:34:53;12.70;99.90
39021;DHT22;25188;51.958;5.842;2022-11-15T09:37:18;12.70;99.90
39021;DHT22;25188;51.958;5.842;2022-11-15T09:39:44;12.80;99.90
39021;DHT22;25188;51.958;5.842;2022-11-15T09:47:49;13.30;99.90
39021;DHT22;25188;51.958;5.842;2022-11-15T09:53:15;13.60;99.90
39021;DHT22;25188;51.958;5.842;2022-11-15T09:56:01;13.80;99.90
39021;DHT22;25188;51.958;5.842;2022-11-15T09:58:42;13.90;99.90
39021;DHT22;25188;51.958;5.842;2022-11-15T10:01:23;14.00;99.90
39021;DHT22;25188;51.958;5.842;2022-11-15T10:03:56;14.00;99.90
39021;DHT22;25188;51.958;5.842;2022-11-15T10:06:25;13.90;99.70
39021;DHT22;25188;51.958;5.842;2022-11-15T10:11:24;13.90;99.00
39021;DHT22;25188;51.958;5.842;2022-11-15T10:13:53;13.90;99.00
39021;DHT22;25188;51.958;5.842;2022-11-15T10:19:45;14.20;98.30
39021;DHT22;25188;51.958;5.842;2022-11-15T10:22:35;14.20;97.10
39021;DHT22;25188;51.958;5.842;2022-11-15T10:27:34;14.00;96.40
39021;DHT22;25188;51.958;5.842;2022-11-15T10:30:01;14.00;96.20
39021;DHT22;25188;51.958;5.842;2022-11-15T10:32:30;14.00;96.40
39021;DHT22;25188;51.958;5.842;2022-11-15T10:34:59;14.00;96.90
39021;DHT22;25188;51.958;5.842;2022-11-15T10:37:40;14.20;97.00
39021;DHT22;25188;51.958;5.842;2022-11-15T10:40:20;14.60;96.40
39021;DHT22;25188;51.958;5.842;2022-11-15T10:42:46;14.80;96.10
39021;DHT22;25188;51.958;5.842;2022-11-15T10:45:29;15.10;95.80
39021;DHT22;25188;51.958;5.842;2022-11-15T10:50:46;16.20;95.20
39021;DHT22;25188;51.958;5.842;2022-11-15T10:53:32;16.80;94.10
39021;DHT22;25188;51.958;5.842;2022-11-15T10:56:03;17.10;92.70
39021;DHT22;25188;51.958;5.842;2022-11-15T11:00:54;17.20;86.30
39021;DHT22;25188;51.958;5.842;2022-11-15T11:03:27;17.20;83.80
39021;DHT22;25188;51.958;5.842;2022-11-15T11:06:29;17.00;82.50
39021;DHT22;25188;51.958;5.842;2022-11-15T11:08:59;16.90;82.40
39021;DHT22;25188;51.958;5.842;2022-11-15T11:11:46;16.90;81.20
39021;DHT22;25188;51.958;5.842;2022-11-15T11:43:15;19.40;66.50
39021;DHT22;25188;51.958;5.842;2022-11-15T11:48:42;19.80;63.00
39021;DHT22;25188;51.958;5.842;2022-11-15T11:51:32;20.00;62.20
39021;DHT22;25188;51.958;5.842;2022-11-15T11:54:16;20.40;61.10
39021;DHT22;25188;51.958;5.842;2022-11-15T11:56:45;20.70;59.50
39021;DHT22;25188;51.958;5.842;2022-11-15T11:59:49;20.90;59.20
39021;DHT22;25188;51.958;5.842;2022-11-15T12:02:33;21.00;58.20
39021;DHT22;25188;51.958;5.842;2022-11-15T12:07:41;21.20;57.80
39021;DHT22;25188;51.958;5.842;2022-11-15T12:10:24;21.30;57.40
39021;DHT22;25188;51.958;5.842;2022-11-15T12:13:05;21.30;56.50
39021;DHT22;25188;51.958;5.842;2022-11-15T12:16:01;21.40;56.50
39021;DHT22;25188;51.958;5.842;2022-11-15T12:18:28;21.50;56.40
39021;DHT22;25188;51.958;5.842;2022-11-15T12:21:01;21.50;56.10
39021;DHT22;25188;51.958;5.842;2022-11-15T12:23:32;21.50;55.10
39021;DHT22;25188;51.958;5.842;2022-11-15T12:26:09;21.40;54.50
39021;DHT22;25188;51.958;5.842;2022-11-15T12:31:41;21.00;53.60
39021;DHT22;25188;51.958;5.842;2022-11-15T12:36:49;20.60;54.50
39021;DHT22;25188;51.958;5.842;2022-11-15T12:39:16;20.70;55.10
39021;DHT22;25188;51.958;5.842;2022-11-15T12:49:53;20.90;54.90
39021;DHT22;25188;51.958;5.842;2022-11-15T12:52:19;21.00;55.00
39021;DHT22;25188;51.958;5.842;2022-11-15T12:54:54;21.10;54.80
39021;DHT22;25188;51.958;5.842;2022-11-15T13:03:17;21.20;53.80
39021;DHT22;25188;51.958;5.842;2022-11-15T13:08:09;20.90;53.50
39021;DHT22;25188;51.958;5.842;2022-11-15T13:10:54;20.80;53.70
39021;DHT22;25188;51.958;5.842;2022-11-15T13:13:42;20.80;54.00
39021;DHT22;25188;51.958;5.842;2022-11-15T13:16:08;20.70;54.30
39021;DHT22;25188;51.958;5.842;2022-11-15T13:18:40;20.70;54.10
39021;DHT22;25188;51.958;5.842;2022-11-15T13:21:22;20.70;54.10
39021;DHT22;25188;51.958;5.842;2022-11-15T13:24:15;20.60;53.90
39021;DHT22;25188;51.958;5.842;2022-11-15T13:26:41;20.50;53.90
39021;DHT22;25188;51.958;5.842;2022-11-15T13:29:18;20.20;54.00
39021;DHT22;25188;51.958;5.842;2022-11-15T13:31:45;20.00;54.30
39021;DHT22;25188;51.958;5.842;2022-11-15T13:34:32;19.80;54.80
39021;DHT22;25188;51.958;5.842;2022-11-15T13:37:02;19.50;55.20
39021;DHT22;25188;51.958;5.842;2022-11-15T13:39:33;19.30;55.50
39021;DHT22;25188;51.958;5.842;2022-11-15T13:41:59;19.10;55.60
39021;DHT22;25188;51.958;5.842;2022-11-15T13:44:29;19.00;55.60
39021;DHT22;25188;51.958;5.842;2022-11-15T13:47:06;18.80;56.40
39021;DHT22;25188;51.958;5.842;2022-11-15T13:49:33;18.70;56.80
39021;DHT22;25188;51.958;5.842;2022-11-15T13:52:01;18.50;57.20
39021;DHT22;25188;51.958;5.842;2022-11-15T13:54:33;18.40;57.60
39021;DHT22;25188;51.958;5.842;2022-11-15T13:57:14;18.20;57.80
39021;DHT22;25188;51.958;5.842;2022-11-15T13:59:59;18.10;58.20
39021;DHT22;25188;51.958;5.842;2022-11-15T14:02:36;18.00;58.70
39021;DHT22;25188;51.958;5.842;2022-11-15T14:05:20;17.80;59.10
39021;DHT22;25188;51.958;5.842;2022-11-15T14:07:58;17.70;59.50
39021;DHT22;25188;51.958;5.842;2022-11-15T14:10:35;17.50;59.70
39021;DHT22;25188;51.958;5.842;2022-11-15T14:13:02;17.40;60.10
39021;DHT22;25188;51.958;5.842;2022-11-15T14:15:34;17.20;60.40
39021;DHT22;25188;51.958;5.842;2022-11-15T14:18:00;17.10;60.70
39021;DHT22;25188;51.958;5.842;2022-11-15T14:22:58;16.70;61.40
39021;DHT22;25188;51.958;5.842;2022-11-15T14:25:52;16.50;61.80
39021;DHT22;25188;51.958;5.842;2022-11-15T14:30:51;16.20;62.80
39021;DHT22;25188;51.958;5.842;2022-11-15T14:33:24;16.10;63.20
39021;DHT22;25188;51.958;5.842;2022-11-15T14:35:52;16.00;63.50
39021;DHT22;25188;51.958;5.842;2022-11-15T14:38:18;15.90;63.90
39021;DHT22;25188;51.958;5.842;2022-11-15T14:40:44;15.60;64.20
39021;DHT22;25188;51.958;5.842;2022-11-15T14:43:11;15.60;64.70
39021;DHT22;25188;51.958;5.842;2022-11-15T14:45:37;15.50;65.80
39021;DHT22;25188;51.958;5.842;2022-11-15T14:48:03;15.40;65.50
39021;DHT22;25188;51.958;5.842;2022-11-15T14:50:29;15.30;65.90
39021;DHT22;25188;51.958;5.842;2022-11-15T14:52:55;15.20;66.20
39021;DHT22;25188;51.958;5.842;2022-11-15T14:55:26;15.20;66.50
39021;DHT22;25188;51.958;5.842;2022-11-15T14:57:54;15.10;66.90
39021;DHT22;25188;51.958;5.842;2022-11-15T15:00:20;15.00;67.10
39021;DHT22;25188;51.958;5.842;2022-11-15T15:02:47;14.90;67.40
39021;DHT22;25188;51.958;5.842;2022-11-15T15:05:19;14.90;67.60
39021;DHT22;25188;51.958;5.842;2022-11-15T15:07:46;14.80;68.00
39021;DHT22;25188;51.958;5.842;2022-11-15T15:10:13;14.80;68.20
39021;DHT22;25188;51.958;5.842;2022-11-15T15:12:39;14.70;68.50
39021;DHT22;25188;51.958;5.842;2022-11-15T15:15:05;14.70;68.50
39021;DHT22;25188;51.958;5.842;2022-11-15T15:17:31;14.60;68.60
39021;DHT22;25188;51.958;5.842;2022-11-15T15:19:57;14.60;68.80
39021;DHT22;25188;51.958;5.842;2022-11-15T15:22:22;14.60;69.50
39021;DHT22;25188;51.958;5.842;2022-11-15T15:24:51;14.50;68.90
39021;DHT22;25188;51.958;5.842;2022-11-15T15:27:17;14.50;69.10
39021;DHT22;25188;51.958;5.842;2022-11-15T15:29:43;14.50;69.30
39021;DHT22;25188;51.958;5.842;2022-11-15T15:32:09;14.40;69.40
39021;DHT22;25188;51.958;5.842;2022-11-15T15:34:35;14.40;69.50
39021;DHT22;25188;51.958;5.842;2022-11-15T15:37:23;14.40;69.60
39021;DHT22;25188;51.958;5.842;2022-11-15T15:39:52;14.30;69.70
39021;DHT22;25188;51.958;5.842;2022-11-15T15:42:19;14.30;69.70
39021;DHT22;25188;51.958;5.842;2022-11-15T15:44:45;14.30;70.50
39021;DHT22;25188;51.958;5.842;2022-11-15T15:47:21;14.30;69.90
39021;DHT22;25188;51.958;5.842;2022-11-15T15:49:51;14.20;70.10
39021;DHT22;25188;51.958;5.842;2022-11-15T15:52:17;14.20;70.70
39021;DHT22;25188;51.958;5.842;2022-11-15T15:54:42;14.20;70.20
39021;DHT22;25188;51.958;5.842;2022-11-15T15:57:11;14.20;70.50
39021;DHT22;25188;51.958;5.842;2022-11-15T15:59:37;14.10;70.60
39021;DHT22;25188;51.958;5.842;2022-11-15T16:02:03;14.10;70.90
39021;DHT22;25188;51.958;5.842;2022-11-15T16:04:29;14.10;71.20
39021;DHT22;25188;51.958;5.842;2022-11-15T16:07:01;14.00;72.10
39021;DHT22;25188;51.958;5.842;2022-11-15T16:09:28;14.00;71.50
39021;DHT22;25188;51.958;5.842;2022-11-15T16:12:12;14.00;71.80
39021;DHT22;25188;51.958;5.842;2022-11-15T16:14:37;14.00;72.30
39021;DHT22;25188;51.958;5.842;2022-11-15T16:17:03;14.00;72.60
39021;DHT22;25188;51.958;5.842;2022-11-15T16:19:29;13.90;72.80
39021;DHT22;25188;51.958;5.842;2022-11-15T16:21:55;13.90;73.10
39021;DHT22;25188;51.958;5.842;2022-11-15T16:24:20;13.90;73.30
39021;DHT22;25188;51.958;5.842;2022-11-15T16:26:47;13.80;73.60
39021;DHT22;25188;51.958;5.842;2022-11-15T16:29:13;13.80;74.00
39021;DHT22;25188;51.958;5.842;2022-11-15T16:31:39;13.80;74.30
39021;DHT22;25188;51.958;5.842;2022-11-15T16:34:05;13.80;74.50
39021;DHT22;25188;51.958;5.842;2022-11-15T16:36:33;13.80;74.70
39021;DHT22;25188;51.958;5.842;2022-11-15T16:39:00;13.80;74.90
39021;DHT22;25188;51.958;5.842;2022-11-15T16:41:29;13.80;75.30
39021;DHT22;25188;51.958;5.842;2022-11-15T16:43:54;13.80;75.60
39021;DHT22;25188;51.958;5.842;2022-11-15T16:46:22;13.70;75.70
39021;DHT22;25188;51.958;5.842;2022-11-15T16:48:48;13.70;76.00
39021;DHT22;25188;51.958;5.842;2022-11-15T16:51:15;13.70;76.40
39021;DHT22;25188;51.958;5.842;2022-11-15T16:53:41;13.70;76.40
39021;DHT22;25188;51.958;5.842;2022-11-15T16:58:42;13.70;76.80
39021;DHT22;25188;51.958;5.842;2022-11-15T17:01:22;13.70;77.00
39021;DHT22;25188;51.958;5.842;2022-11-15T17:03:47;13.70;77.50
39021;DHT22;25188;51.958;5.842;2022-11-15T17:06:13;13.70;77.70
39021;DHT22;25188;51.958;5.842;2022-11-15T17:08:40;13.70;77.90
39021;DHT22;25188;51.958;5.842;2022-11-15T17:11:06;13.70;78.00
39021;DHT22;25188;51.958;5.842;2022-11-15T17:13:33;13.70;78.20
39021;DHT22;25188;51.958;5.842;2022-11-15T17:16:10;13.70;78.20
39021;DHT22;25188;51.958;5.842;2022-11-15T17:18:36;13.70;78.30
39021;DHT22;25188;51.958;5.842;2022-11-15T17:21:08;13.70;78.40
39021;DHT22;25188;51.958;5.842;2022-11-15T17:23:34;13.70;78.60
39021;DHT22;25188;51.958;5.842;2022-11-15T17:26:01;13.70;78.60
39021;DHT22;25188;51.958;5.842;2022-11-15T17:28:29;13.70;78.60
39021;DHT22;25188;51.958;5.842;2022-11-15T17:30:54;13.70;79.10
39021;DHT22;25188;51.958;5.842;2022-11-15T17:33:20;13.70;79.20
39021;DHT22;25188;51.958;5.842;2022-11-15T17:35:45;13.70;79.30